CheckWX is a tool to help pilots better visualize weather data.  It is not intended as a substitute for an official pre-flight weather briefing.

04:43:28 UTC

ESPA TAF
Luleå Airport
Luleå, Sweden
TAF ESPA 230230Z 2303/2312 20015G26KT CAVOK PROB40 2303/2306 4000 -RASN BKN010 RMK MIL

Mar-23@
03:00 UTC

Mar-23 @ 03:00 UTC

Mar-23@
12:00 UTC

Mar-23 @ 12:00 UTC

TAF ESPA 230230Z 2303/2312 20015G26KT CAVOK
Wind
  • 200° at 15 KTS
  • {Gusting to 26 KTS
Conditions
No significant weather
Cloud Levels
  • No significant clouds

Mar-23@
03:00 UTC

Mar-23 @ 03:00 UTC

Mar-23@
06:00 UTC

Mar-23 @ 06:00 UTC

PROB40 2303/2306 4000 -RASN BKN010 RMK MIL

Probable - 40% Likelihood

Probable - 40% Likelihood during this time.

Conditions
Light Rain, Light Snow
Cloud Levels
  • Broken at 1,000' AGL